sensor_id;sensor_type;location;lat;lon;timestamp;pressure;altitude;pressure_sealevel;temperature;humidity
11523;BME280;70090;43.208;27.904;2023-11-19T00:01:01;99658.03;;;3.55;100.00
11523;BME280;70090;43.208;27.904;2023-11-19T00:03:30;99725.41;;;3.61;100.00
11523;BME280;70090;43.208;27.904;2023-11-19T00:06:00;99672.16;;;3.60;100.00
11523;BME280;70090;43.208;27.904;2023-11-19T00:08:28;99674.09;;;3.60;100.00
11523;BME280;70090;43.208;27.904;2023-11-19T00:10:55;99713.75;;;3.61;100.00
11523;BME280;70090;43.208;27.904;2023-11-19T00:13:22;99775.19;;;3.62;100.00
11523;BME280;70090;43.208;27.904;2023-11-19T00:15:51;99770.44;;;3.59;100.00
11523;BME280;70090;43.208;27.904;2023-11-19T00:18:18;99804.69;;;3.60;100.00
11523;BME280;70090;43.208;27.904;2023-11-19T00:20:45;99790.72;;;3.61;100.00
11523;BME280;70090;43.208;27.904;2023-11-19T00:23:14;99765.00;;;3.59;100.00
11523;BME280;70090;43.208;27.904;2023-11-19T00:25:41;99806.25;;;3.61;100.00
11523;BME280;70090;43.208;27.904;2023-11-19T00:28:08;99783.78;;;3.64;100.00
11523;BME280;70090;43.208;27.904;2023-11-19T00:30:35;99752.63;;;3.61;100.00
11523;BME280;70090;43.208;27.904;2023-11-19T00:33:01;99802.19;;;3.55;100.00
11523;BME280;70090;43.208;27.904;2023-11-19T00:35:29;99826.53;;;3.63;100.00
11523;BME280;70090;43.208;27.904;2023-11-19T00:37:57;99808.63;;;3.62;100.00
11523;BME280;70090;43.208;27.904;2023-11-19T00:40:25;99828.47;;;3.63;100.00
11523;BME280;70090;43.208;27.904;2023-11-19T00:42:52;99852.16;;;3.62;100.00
11523;BME280;70090;43.208;27.904;2023-11-19T00:45:19;99842.94;;;3.67;100.00
11523;BME280;70090;43.208;27.904;2023-11-19T00:47:46;99849.88;;;3.64;100.00
11523;BME280;70090;43.208;27.904;2023-11-19T00:50:13;99844.56;;;3.68;100.00
11523;BME280;70090;43.208;27.904;2023-11-19T00:52:41;99856.31;;;3.72;100.00
11523;BME280;70090;43.208;27.904;2023-11-19T00:55:08;99883.53;;;3.72;100.00
11523;BME280;70090;43.208;27.904;2023-11-19T00:57:36;99885.09;;;3.73;100.00
11523;BME280;70090;43.208;27.904;2023-11-19T01:00:05;99872.63;;;3.72;100.00
11523;BME280;70090;43.208;27.904;2023-11-19T01:02:34;99876.59;;;3.74;100.00
11523;BME280;70090;43.208;27.904;2023-11-19T01:05:01;99858.00;;;3.76;100.00
11523;BME280;70090;43.208;27.904;2023-11-19T01:07:28;99933.81;;;3.78;100.00
11523;BME280;70090;43.208;27.904;2023-11-19T01:09:55;99938.59;;;3.81;100.00
11523;BME280;70090;43.208;27.904;2023-11-19T01:12:22;99934.31;;;3.80;100.00
11523;BME280;70090;43.208;27.904;2023-11-19T01:14:51;99952.22;;;3.81;100.00
11523;BME280;70090;43.208;27.904;2023-11-19T01:17:18;99912.88;;;3.78;100.00
11523;BME280;70090;43.208;27.904;2023-11-19T01:19:45;100027.97;;;3.79;100.00
11523;BME280;70090;43.208;27.904;2023-11-19T01:22:12;99977.84;;;3.80;100.00
11523;BME280;70090;43.208;27.904;2023-11-19T01:24:38;99969.22;;;3.78;100.00
11523;BME280;70090;43.208;27.904;2023-11-19T01:27:05;99989.88;;;3.79;100.00
11523;BME280;70090;43.208;27.904;2023-11-19T01:29:32;99976.94;;;3.76;100.00
11523;BME280;70090;43.208;27.904;2023-11-19T01:32:01;99994.16;;;3.80;100.00
11523;BME280;70090;43.208;27.904;2023-11-19T01:34:28;100041.56;;;3.79;100.00
11523;BME280;70090;43.208;27.904;2023-11-19T01:36:54;99987.03;;;3.75;100.00
11523;BME280;70090;43.208;27.904;2023-11-19T01:39:21;100012.66;;;3.74;100.00
11523;BME280;70090;43.208;27.904;2023-11-19T01:41:48;99993.94;;;3.73;100.00
11523;BME280;70090;43.208;27.904;2023-11-19T01:44:15;100000.28;;;3.77;100.00
11523;BME280;70090;43.208;27.904;2023-11-19T01:46:44;100011.41;;;3.72;100.00
11523;BME280;70090;43.208;27.904;2023-11-19T01:49:15;100000.19;;;3.73;100.00
11523;BME280;70090;43.208;27.904;2023-11-19T01:51:42;99993.13;;;3.72;100.00
11523;BME280;70090;43.208;27.904;2023-11-19T01:54:10;99972.19;;;3.73;100.00
11523;BME280;70090;43.208;27.904;2023-11-19T01:56:38;99937.06;;;3.68;100.00
11523;BME280;70090;43.208;27.904;2023-11-19T01:59:07;99985.47;;;3.62;100.00
11523;BME280;70090;43.208;27.904;2023-11-19T02:01:35;99964.47;;;3.63;100.00
11523;BME280;70090;43.208;27.904;2023-11-19T02:04:05;100013.00;;;3.61;100.00
11523;BME280;70090;43.208;27.904;2023-11-19T02:06:34;100009.59;;;3.64;100.00
11523;BME280;70090;43.208;27.904;2023-11-19T02:09:05;100030.09;;;3.61;100.00
11523;BME280;70090;43.208;27.904;2023-11-19T02:11:33;99965.19;;;3.60;100.00
11523;BME280;70090;43.208;27.904;2023-11-19T02:14:00;100033.06;;;3.56;100.00
11523;BME280;70090;43.208;27.904;2023-11-19T02:16:29;100055.66;;;3.57;100.00
11523;BME280;70090;43.208;27.904;2023-11-19T02:18:56;100043.16;;;3.56;100.00
11523;BME280;70090;43.208;27.904;2023-11-19T02:21:23;100089.38;;;3.56;100.00
11523;BME280;70090;43.208;27.904;2023-11-19T02:23:51;100104.13;;;3.55;100.00
11523;BME280;70090;43.208;27.904;2023-11-19T02:26:26;100051.66;;;3.54;100.00
11523;BME280;70090;43.208;27.904;2023-11-19T02:28:57;99984.69;;;3.50;100.00
11523;BME280;70090;43.208;27.904;2023-11-19T02:31:23;100094.16;;;3.47;100.00
11523;BME280;70090;43.208;27.904;2023-11-19T02:33:52;100069.69;;;3.47;100.00
11523;BME280;70090;43.208;27.904;2023-11-19T02:36:20;100086.78;;;3.47;100.00
11523;BME280;70090;43.208;27.904;2023-11-19T02:38:47;100025.69;;;3.45;100.00
11523;BME280;70090;43.208;27.904;2023-11-19T02:41:14;100066.97;;;3.47;100.00
11523;BME280;70090;43.208;27.904;2023-11-19T02:43:41;100056.75;;;3.44;100.00
11523;BME280;70090;43.208;27.904;2023-11-19T02:46:09;100074.00;;;3.48;100.00
11523;BME280;70090;43.208;27.904;2023-11-19T02:48:36;100093.69;;;3.45;100.00
11523;BME280;70090;43.208;27.904;2023-11-19T02:51:04;99933.78;;;3.38;100.00
11523;BME280;70090;43.208;27.904;2023-11-19T02:53:34;100027.19;;;3.42;100.00
11523;BME280;70090;43.208;27.904;2023-11-19T02:56:03;100083.50;;;3.42;100.00
11523;BME280;70090;43.208;27.904;2023-11-19T02:58:42;100052.69;;;3.38;100.00
11523;BME280;70090;43.208;27.904;2023-11-19T03:01:11;100084.19;;;3.39;100.00
11523;BME280;70090;43.208;27.904;2023-11-19T03:03:48;100100.94;;;3.41;100.00
11523;BME280;70090;43.208;27.904;2023-11-19T03:06:19;100095.50;;;3.41;100.00
11523;BME280;70090;43.208;27.904;2023-11-19T03:08:47;100052.00;;;3.41;100.00
11523;BME280;70090;43.208;27.904;2023-11-19T03:11:14;100079.19;;;3.41;100.00
11523;BME280;70090;43.208;27.904;2023-11-19T03:13:41;100117.28;;;3.41;100.00
11523;BME280;70090;43.208;27.904;2023-11-19T03:16:08;100118.84;;;3.42;100.00
11523;BME280;70090;43.208;27.904;2023-11-19T03:18:38;100073.75;;;3.41;100.00
11523;BME280;70090;43.208;27.904;2023-11-19T03:21:05;100117.28;;;3.41;100.00
11523;BME280;70090;43.208;27.904;2023-11-19T03:23:33;100152.63;;;3.41;100.00
11523;BME280;70090;43.208;27.904;2023-11-19T03:26:00;100137.44;;;3.40;100.00
11523;BME280;70090;43.208;27.904;2023-11-19T03:28:29;100169.06;;;3.44;100.00
11523;BME280;70090;43.208;27.904;2023-11-19T03:30:56;100110.56;;;3.38;100.00
11523;BME280;70090;43.208;27.904;2023-11-19T03:33:23;100147.06;;;3.37;100.00
11523;BME280;70090;43.208;27.904;2023-11-19T03:35:54;100036.69;;;3.36;100.00
11523;BME280;70090;43.208;27.904;2023-11-19T03:38:22;100127.91;;;3.34;100.00
11523;BME280;70090;43.208;27.904;2023-11-19T03:40:49;100145.78;;;3.35;100.00
11523;BME280;70090;43.208;27.904;2023-11-19T03:43:16;100133.81;;;3.36;100.00
11523;BME280;70090;43.208;27.904;2023-11-19T03:45:44;100095.75;;;3.36;100.00
11523;BME280;70090;43.208;27.904;2023-11-19T03:48:11;100169.16;;;3.36;100.00
11523;BME280;70090;43.208;27.904;2023-11-19T03:50:39;100095.06;;;3.39;100.00
11523;BME280;70090;43.208;27.904;2023-11-19T03:53:08;100122.72;;;3.41;100.00
11523;BME280;70090;43.208;27.904;2023-11-19T03:55:34;100131.31;;;3.43;100.00
11523;BME280;70090;43.208;27.904;2023-11-19T03:58:01;100112.06;;;3.48;100.00
11523;BME280;70090;43.208;27.904;2023-11-19T04:00:28;100120.88;;;3.45;100.00
11523;BME280;70090;43.208;27.904;2023-11-19T04:02:55;100104.56;;;3.45;100.00
11523;BME280;70090;43.208;27.904;2023-11-19T04:05:22;100144.22;;;3.46;100.00
11523;BME280;70090;43.208;27.904;2023-11-19T04:07:49;100133.34;;;3.46;100.00
11523;BME280;70090;43.208;27.904;2023-11-19T04:10:17;100173.63;;;3.52;100.00
11523;BME280;70090;43.208;27.904;2023-11-19T04:12:45;100152.31;;;3.54;100.00
11523;BME280;70090;43.208;27.904;2023-11-19T04:15:13;100137.13;;;3.53;100.00
11523;BME280;70090;43.208;27.904;2023-11-19T04:17:40;100144.59;;;3.56;100.00
11523;BME280;70090;43.208;27.904;2023-11-19T04:20:08;100169.22;;;3.60;100.00
11523;BME280;70090;43.208;27.904;2023-11-19T04:22:37;100132.72;;;3.61;100.00
11523;BME280;70090;43.208;27.904;2023-11-19T04:25:05;100160.03;;;3.64;100.00
11523;BME280;70090;43.208;27.904;2023-11-19T04:27:33;100155.38;;;3.65;100.00
11523;BME280;70090;43.208;27.904;2023-11-19T04:30:00;100167.84;;;3.66;100.00
11523;BME280;70090;43.208;27.904;2023-11-19T04:32:29;100123.19;;;3.67;100.00
11523;BME280;70090;43.208;27.904;2023-11-19T04:34:56;100181.44;;;3.66;100.00
11523;BME280;70090;43.208;27.904;2023-11-19T04:37:22;100126.59;;;3.64;100.00
11523;BME280;70090;43.208;27.904;2023-11-19T04:39:50;100171.25;;;3.63;100.00
11523;BME280;70090;43.208;27.904;2023-11-19T04:42:17;100143.84;;;3.68;100.00
11523;BME280;70090;43.208;27.904;2023-11-19T04:44:45;100203.56;;;3.64;100.00
11523;BME280;70090;43.208;27.904;2023-11-19T04:47:12;100229.28;;;3.67;100.00
11523;BME280;70090;43.208;27.904;2023-11-19T04:49:40;100180.31;;;3.67;100.00
11523;BME280;70090;43.208;27.904;2023-11-19T04:52:08;100148.34;;;3.64;100.00
11523;BME280;70090;43.208;27.904;2023-11-19T04:54:35;100165.81;;;3.63;100.00
11523;BME280;70090;43.208;27.904;2023-11-19T04:57:02;100193.03;;;3.63;100.00
11523;BME280;70090;43.208;27.904;2023-11-19T04:59:29;100160.47;;;3.54;100.00
11523;BME280;70090;43.208;27.904;2023-11-19T05:01:57;100181.78;;;3.52;100.00
11523;BME280;70090;43.208;27.904;2023-11-19T05:04:24;100182.00;;;3.47;100.00
11523;BME280;70090;43.208;27.904;2023-11-19T05:06:51;100200.44;;;3.42;100.00
11523;BME280;70090;43.208;27.904;2023-11-19T05:09:18;100208.84;;;3.37;100.00
11523;BME280;70090;43.208;27.904;2023-11-19T05:11:45;100214.81;;;3.30;100.00
11523;BME280;70090;43.208;27.904;2023-11-19T05:14:12;100225.56;;;3.27;100.00
11523;BME280;70090;43.208;27.904;2023-11-19T05:16:39;100128.31;;;3.24;100.00
11523;BME280;70090;43.208;27.904;2023-11-19T05:19:08;100149.41;;;3.27;100.00
11523;BME280;70090;43.208;27.904;2023-11-19T05:21:35;100206.19;;;3.28;100.00
11523;BME280;70090;43.208;27.904;2023-11-19T05:24:03;100216.50;;;3.35;100.00
11523;BME280;70090;43.208;27.904;2023-11-19T05:26:30;100206.44;;;3.35;100.00
11523;BME280;70090;43.208;27.904;2023-11-19T05:28:57;100153.50;;;3.33;100.00
11523;BME280;70090;43.208;27.904;2023-11-19T05:31:24;100239.75;;;3.32;100.00
11523;BME280;70090;43.208;27.904;2023-11-19T05:33:51;100205.63;;;3.35;100.00
11523;BME280;70090;43.208;27.904;2023-11-19T05:36:19;100281.78;;;3.35;100.00
11523;BME280;70090;43.208;27.904;2023-11-19T05:38:46;100198.59;;;3.34;100.00
11523;BME280;70090;43.208;27.904;2023-11-19T05:41:14;100239.88;;;3.36;100.00
11523;BME280;70090;43.208;27.904;2023-11-19T05:43:41;100268.53;;;3.33;100.00
11523;BME280;70090;43.208;27.904;2023-11-19T05:46:07;100261.38;;;3.29;100.00
11523;BME280;70090;43.208;27.904;2023-11-19T05:48:35;100253.66;;;3.31;100.00
11523;BME280;70090;43.208;27.904;2023-11-19T05:51:02;100275.75;;;3.29;100.00
11523;BME280;70090;43.208;27.904;2023-11-19T05:53:30;100215.81;;;3.26;100.00
11523;BME280;70090;43.208;27.904;2023-11-19T05:55:57;100289.09;;;3.22;100.00
11523;BME280;70090;43.208;27.904;2023-11-19T05:58:24;100324.09;;;3.24;100.00
11523;BME280;70090;43.208;27.904;2023-11-19T06:00:54;100323.44;;;3.27;100.00
11523;BME280;70090;43.208;27.904;2023-11-19T06:03:21;100275.28;;;3.27;100.00
11523;BME280;70090;43.208;27.904;2023-11-19T06:05:48;100268.78;;;3.20;100.00
11523;BME280;70090;43.208;27.904;2023-11-19T06:08:16;100247.97;;;3.24;100.00
11523;BME280;70090;43.208;27.904;2023-11-19T06:10:44;100338.03;;;3.22;100.00
11523;BME280;70090;43.208;27.904;2023-11-19T06:13:12;100273.78;;;3.18;100.00
11523;BME280;70090;43.208;27.904;2023-11-19T06:15:40;100298.91;;;3.15;100.00
11523;BME280;70090;43.208;27.904;2023-11-19T06:18:07;100338.06;;;3.14;100.00
11523;BME280;70090;43.208;27.904;2023-11-19T06:20:35;100315.22;;;3.15;100.00
11523;BME280;70090;43.208;27.904;2023-11-19T06:23:02;100299.25;;;3.13;100.00
11523;BME280;70090;43.208;27.904;2023-11-19T06:25:29;100331.06;;;3.13;100.00
11523;BME280;70090;43.208;27.904;2023-11-19T06:27:58;100324.22;;;3.07;100.00
11523;BME280;70090;43.208;27.904;2023-11-19T06:30:25;100296.25;;;3.06;100.00
11523;BME280;70090;43.208;27.904;2023-11-19T06:32:53;100361.84;;;3.05;100.00
11523;BME280;70090;43.208;27.904;2023-11-19T06:35:20;100333.69;;;3.01;100.00
11523;BME280;70090;43.208;27.904;2023-11-19T06:37:47;100319.31;;;3.00;100.00
11523;BME280;70090;43.208;27.904;2023-11-19T06:40:14;100235.53;;;3.02;100.00
11523;BME280;70090;43.208;27.904;2023-11-19T06:42:42;100290.88;;;2.98;100.00
11523;BME280;70090;43.208;27.904;2023-11-19T06:45:10;100272.97;;;2.97;100.00
11523;BME280;70090;43.208;27.904;2023-11-19T06:47:37;100371.28;;;2.99;100.00
11523;BME280;70090;43.208;27.904;2023-11-19T06:50:05;100270.84;;;3.02;100.00
11523;BME280;70090;43.208;27.904;2023-11-19T06:52:32;100257.59;;;3.01;100.00
11523;BME280;70090;43.208;27.904;2023-11-19T06:54:59;100340.09;;;3.05;100.00
11523;BME280;70090;43.208;27.904;2023-11-19T06:57:27;100320.38;;;3.08;100.00
11523;BME280;70090;43.208;27.904;2023-11-19T06:59:55;100339.28;;;3.04;100.00
11523;BME280;70090;43.208;27.904;2023-11-19T07:02:23;100353.53;;;3.01;100.00
11523;BME280;70090;43.208;27.904;2023-11-19T07:04:50;100379.91;;;3.01;100.00
11523;BME280;70090;43.208;27.904;2023-11-19T07:07:18;100343.44;;;3.02;100.00
11523;BME280;70090;43.208;27.904;2023-11-19T07:09:45;100351.41;;;3.07;100.00
11523;BME280;70090;43.208;27.904;2023-11-19T07:12:13;100300.31;;;3.00;100.00
11523;BME280;70090;43.208;27.904;2023-11-19T07:14:40;100377.66;;;3.03;100.00
11523;BME280;70090;43.208;27.904;2023-11-19T07:17:07;100383.28;;;2.98;100.00
11523;BME280;70090;43.208;27.904;2023-11-19T07:19:37;100396.06;;;2.97;100.00
11523;BME280;70090;43.208;27.904;2023-11-19T07:22:05;100369.69;;;2.98;100.00
11523;BME280;70090;43.208;27.904;2023-11-19T07:24:32;100363.59;;;3.01;100.00
11523;BME280;70090;43.208;27.904;2023-11-19T07:26:59;100351.94;;;3.00;100.00
11523;BME280;70090;43.208;27.904;2023-11-19T07:29:28;100382.16;;;2.99;100.00
11523;BME280;70090;43.208;27.904;2023-11-19T07:31:55;100393.03;;;2.99;100.00
11523;BME280;70090;43.208;27.904;2023-11-19T07:34:22;100370.63;;;3.02;100.00
11523;BME280;70090;43.208;27.904;2023-11-19T07:36:51;100374.75;;;3.08;100.00
11523;BME280;70090;43.208;27.904;2023-11-19T07:39:18;100417.59;;;3.11;100.00
11523;BME280;70090;43.208;27.904;2023-11-19T07:41:46;100300.09;;;3.05;100.00
11523;BME280;70090;43.208;27.904;2023-11-19T07:44:13;100399.41;;;3.03;100.00
11523;BME280;70090;43.208;27.904;2023-11-19T07:46:40;100336.75;;;2.99;100.00
11523;BME280;70090;43.208;27.904;2023-11-19T07:49:07;100403.75;;;2.95;100.00
11523;BME280;70090;43.208;27.904;2023-11-19T07:51:35;100379.16;;;2.92;100.00
11523;BME280;70090;43.208;27.904;2023-11-19T07:54:04;100391.97;;;2.91;100.00
11523;BME280;70090;43.208;27.904;2023-11-19T07:56:31;100377.56;;;2.91;100.00
11523;BME280;70090;43.208;27.904;2023-11-19T07:58:59;100369.41;;;2.91;100.00
11523;BME280;70090;43.208;27.904;2023-11-19T08:01:26;100378.69;;;2.90;100.00
11523;BME280;70090;43.208;27.904;2023-11-19T08:03:53;100404.28;;;2.89;100.00
11523;BME280;70090;43.208;27.904;2023-11-19T08:06:22;100382.53;;;2.89;100.00
11523;BME280;70090;43.208;27.904;2023-11-19T08:08:49;100393.25;;;2.85;100.00
11523;BME280;70090;43.208;27.904;2023-11-19T08:11:18;100446.00;;;2.84;100.00
11523;BME280;70090;43.208;27.904;2023-11-19T08:13:45;100393.59;;;2.84;100.00
11523;BME280;70090;43.208;27.904;2023-11-19T08:16:12;100389.75;;;2.85;100.00
11523;BME280;70090;43.208;27.904;2023-11-19T08:18:41;100349.91;;;2.89;100.00
11523;BME280;70090;43.208;27.904;2023-11-19T08:21:08;100425.34;;;2.92;100.00
11523;BME280;70090;43.208;27.904;2023-11-19T08:23:36;100399.13;;;2.96;100.00
11523;BME280;70090;43.208;27.904;2023-11-19T08:26:04;100282.25;;;2.96;100.00
11523;BME280;70090;43.208;27.904;2023-11-19T08:28:32;100345.44;;;2.93;100.00
11523;BME280;70090;43.208;27.904;2023-11-19T08:30:59;100395.13;;;2.93;100.00
11523;BME280;70090;43.208;27.904;2023-11-19T08:33:26;100377.84;;;2.98;100.00
11523;BME280;70090;43.208;27.904;2023-11-19T08:35:53;100431.09;;;2.99;100.00
11523;BME280;70090;43.208;27.904;2023-11-19T08:38:20;100380.56;;;2.98;100.00
11523;BME280;70090;43.208;27.904;2023-11-19T08:40:47;100365.84;;;2.99;100.00
11523;BME280;70090;43.208;27.904;2023-11-19T08:43:14;100421.66;;;2.96;100.00
11523;BME280;70090;43.208;27.904;2023-11-19T08:45:43;100401.66;;;3.01;100.00
11523;BME280;70090;43.208;27.904;2023-11-19T08:48:10;100424.72;;;2.95;100.00
11523;BME280;70090;43.208;27.904;2023-11-19T08:50:37;100397.63;;;3.07;100.00
11523;BME280;70090;43.208;27.904;2023-11-19T08:53:04;100397.16;;;3.05;100.00
11523;BME280;70090;43.208;27.904;2023-11-19T08:55:32;100404.97;;;3.06;100.00
11523;BME280;70090;43.208;27.904;2023-11-19T08:57:59;100409.50;;;3.02;100.00
11523;BME280;70090;43.208;27.904;2023-11-19T09:00:26;100417.03;;;2.97;100.00
11523;BME280;70090;43.208;27.904;2023-11-19T09:02:55;100392.75;;;2.92;100.00
11523;BME280;70090;43.208;27.904;2023-11-19T09:05:23;100318.91;;;2.90;100.00
11523;BME280;70090;43.208;27.904;2023-11-19T09:07:50;100368.09;;;2.97;100.00
11523;BME280;70090;43.208;27.904;2023-11-19T09:10:18;100354.97;;;2.99;100.00
11523;BME280;70090;43.208;27.904;2023-11-19T09:12:45;100369.19;;;3.04;100.00
11523;BME280;70090;43.208;27.904;2023-11-19T09:15:12;100387.06;;;3.05;100.00
11523;BME280;70090;43.208;27.904;2023-11-19T09:17:39;100328.88;;;3.06;100.00
11523;BME280;70090;43.208;27.904;2023-11-19T09:20:09;100370.00;;;3.05;100.00
11523;BME280;70090;43.208;27.904;2023-11-19T09:22:37;100336.69;;;3.08;100.00
11523;BME280;70090;43.208;27.904;2023-11-19T09:25:05;100311.38;;;3.16;100.00
11523;BME280;70090;43.208;27.904;2023-11-19T09:27:32;100338.81;;;3.23;100.00
11523;BME280;70090;43.208;27.904;2023-11-19T09:29:59;100370.13;;;3.29;100.00
11523;BME280;70090;43.208;27.904;2023-11-19T09:32:26;100330.94;;;3.30;100.00
11523;BME280;70090;43.208;27.904;2023-11-19T09:34:53;100350.91;;;3.34;100.00
11523;BME280;70090;43.208;27.904;2023-11-19T09:37:21;100326.63;;;3.29;100.00
11523;BME280;70090;43.208;27.904;2023-11-19T09:39:48;100330.72;;;3.35;100.00
11523;BME280;70090;43.208;27.904;2023-11-19T09:42:15;100295.84;;;3.37;100.00
11523;BME280;70090;43.208;27.904;2023-11-19T09:44:43;100410.88;;;3.37;100.00
11523;BME280;70090;43.208;27.904;2023-11-19T09:47:11;100323.50;;;3.39;100.00
11523;BME280;70090;43.208;27.904;2023-11-19T09:49:38;100366.34;;;3.42;100.00
11523;BME280;70090;43.208;27.904;2023-11-19T09:52:05;100347.78;;;3.44;100.00
11523;BME280;70090;43.208;27.904;2023-11-19T09:54:34;100366.81;;;3.44;100.00
11523;BME280;70090;43.208;27.904;2023-11-19T09:57:02;100350.50;;;3.44;100.00
11523;BME280;70090;43.208;27.904;2023-11-19T09:59:29;100220.88;;;3.48;100.00
11523;BME280;70090;43.208;27.904;2023-11-19T10:01:56;100362.97;;;3.45;100.00
11523;BME280;70090;43.208;27.904;2023-11-19T10:04:23;100306.44;;;3.50;100.00
11523;BME280;70090;43.208;27.904;2023-11-19T10:06:52;100372.53;;;3.51;100.00
11523;BME280;70090;43.208;27.904;2023-11-19T10:09:19;100346.00;;;3.48;100.00
11523;BME280;70090;43.208;27.904;2023-11-19T10:11:48;100362.56;;;3.55;100.00
11523;BME280;70090;43.208;27.904;2023-11-19T10:14:15;100393.00;;;3.57;100.00
11523;BME280;70090;43.208;27.904;2023-11-19T10:16:44;100347.50;;;3.57;100.00
11523;BME280;70090;43.208;27.904;2023-11-19T10:19:18;100387.78;;;3.64;100.00
11523;BME280;70090;43.208;27.904;2023-11-19T10:21:46;100384.59;;;3.82;100.00
11523;BME280;70090;43.208;27.904;2023-11-19T10:24:13;100354.13;;;3.89;100.00
11523;BME280;70090;43.208;27.904;2023-11-19T10:26:40;100384.31;;;3.96;100.00
11523;BME280;70090;43.208;27.904;2023-11-19T10:29:12;100375.94;;;4.01;100.00
11523;BME280;70090;43.208;27.904;2023-11-19T10:31:39;100395.69;;;4.10;100.00
11523;BME280;70090;43.208;27.904;2023-11-19T10:34:24;100471.16;;;4.09;100.00
11523;BME280;70090;43.208;27.904;2023-11-19T10:36:51;100397.72;;;4.01;100.00
11523;BME280;70090;43.208;27.904;2023-11-19T10:39:18;100345.00;;;4.05;100.00
11523;BME280;70090;43.208;27.904;2023-11-19T10:41:46;100384.69;;;4.06;100.00
11523;BME280;70090;43.208;27.904;2023-11-19T10:44:31;100397.31;;;4.11;100.00
11523;BME280;70090;43.208;27.904;2023-11-19T10:46:59;100393.69;;;4.19;100.00
11523;BME280;70090;43.208;27.904;2023-11-19T10:49:26;100338.78;;;4.29;100.00
11523;BME280;70090;43.208;27.904;2023-11-19T10:51:53;100383.97;;;4.42;100.00
11523;BME280;70090;43.208;27.904;2023-11-19T10:54:23;100387.75;;;4.49;100.00
11523;BME280;70090;43.208;27.904;2023-11-19T10:56:55;100383.34;;;4.57;100.00
11523;BME280;70090;43.208;27.904;2023-11-19T10:59:25;100382.44;;;4.65;100.00
11523;BME280;70090;43.208;27.904;2023-11-19T11:01:56;100413.00;;;4.58;100.00
11523;BME280;70090;43.208;27.904;2023-11-19T11:04:24;100376.31;;;4.56;100.00
11523;BME280;70090;43.208;27.904;2023-11-19T11:06:54;100413.75;;;4.59;100.00
11523;BME280;70090;43.208;27.904;2023-11-19T11:09:21;100426.63;;;4.70;100.00
11523;BME280;70090;43.208;27.904;2023-11-19T11:11:50;100368.59;;;4.81;100.00
11523;BME280;70090;43.208;27.904;2023-11-19T11:14:18;100428.09;;;4.79;100.00
11523;BME280;70090;43.208;27.904;2023-11-19T11:16:49;100443.31;;;4.80;100.00
11523;BME280;70090;43.208;27.904;2023-11-19T11:19:16;100399.81;;;4.72;100.00
11523;BME280;70090;43.208;27.904;2023-11-19T11:21:45;100389.94;;;4.68;100.00
11523;BME280;70090;43.208;27.904;2023-11-19T11:24:34;100410.41;;;4.97;100.00
11523;BME280;70090;43.208;27.904;2023-11-19T11:27:33;100419.25;;;5.30;100.00
11523;BME280;70090;43.208;27.904;2023-11-19T11:30:17;100458.13;;;5.51;100.00
11523;BME280;70090;43.208;27.904;2023-11-19T11:32:54;100476.75;;;5.73;100.00
11523;BME280;70090;43.208;27.904;2023-11-19T11:35:32;100480.59;;;5.96;100.00
11523;BME280;70090;43.208;27.904;2023-11-19T11:38:06;100508.00;;;6.00;100.00
11523;BME280;70090;43.208;27.904;2023-11-19T11:40:34;100537.59;;;5.98;100.00
11523;BME280;70090;43.208;27.904;2023-11-19T11:43:01;100530.56;;;5.97;100.00
11523;BME280;70090;43.208;27.904;2023-11-19T11:45:39;100551.81;;;5.79;100.00
11523;BME280;70090;43.208;27.904;2023-11-19T11:48:17;100565.00;;;5.77;100.00
11523;BME280;70090;43.208;27.904;2023-11-19T11:50:54;100581.78;;;5.88;100.00
11523;BME280;70090;43.208;27.904;2023-11-19T11:53:22;100590.06;;;6.03;100.00
11523;BME280;70090;43.208;27.904;2023-11-19T11:55:57;100592.56;;;6.08;100.00
11523;BME280;70090;43.208;27.904;2023-11-19T11:58:29;100625.56;;;6.15;100.00
11523;BME280;70090;43.208;27.904;2023-11-19T12:00:57;100630.81;;;5.96;100.00
11523;BME280;70090;43.208;27.904;2023-11-19T12:03:29;100639.25;;;5.91;100.00
11523;BME280;70090;43.208;27.904;2023-11-19T12:05:57;100646.75;;;5.94;100.00
11523;BME280;70090;43.208;27.904;2023-11-19T12:08:28;100648.34;;;5.95;100.00
11523;BME280;70090;43.208;27.904;2023-11-19T12:10:58;100663.13;;;5.94;100.00
11523;BME280;70090;43.208;27.904;2023-11-19T12:13:44;100666.31;;;5.96;100.00
11523;BME280;70090;43.208;27.904;2023-11-19T12:16:13;100656.97;;;5.97;100.00
11523;BME280;70090;43.208;27.904;2023-11-19T12:18:41;100623.75;;;5.95;100.00
11523;BME280;70090;43.208;27.904;2023-11-19T12:21:08;100636.28;;;5.96;100.00
11523;BME280;70090;43.208;27.904;2023-11-19T12:23:45;100621.34;;;6.06;100.00
11523;BME280;70090;43.208;27.904;2023-11-19T12:26:33;100651.50;;;6.09;100.00
11523;BME280;70090;43.208;27.904;2023-11-19T12:29:01;100631.94;;;6.07;100.00
11523;BME280;70090;43.208;27.904;2023-11-19T12:31:31;100679.97;;;6.08;100.00
11523;BME280;70090;43.208;27.904;2023-11-19T12:34:05;100657.34;;;6.08;100.00
11523;BME280;70090;43.208;27.904;2023-11-19T12:36:32;100641.28;;;5.94;100.00
11523;BME280;70090;43.208;27.904;2023-11-19T12:39:00;100692.53;;;5.65;100.00
11523;BME280;70090;43.208;27.904;2023-11-19T12:41:27;100663.28;;;5.53;100.00
11523;BME280;70090;43.208;27.904;2023-11-19T12:44:08;100681.22;;;5.42;100.00
11523;BME280;70090;43.208;27.904;2023-11-19T12:46:36;100675.06;;;5.45;100.00